createdAt,value
2017-02-23T00:00:45.919Z,994.23
2017-02-23T00:01:45.937Z,994.08
2017-02-23T00:02:45.955Z,994.08
2017-02-23T00:03:45.973Z,994.07
2017-02-23T00:04:45.992Z,994.05
2017-02-23T00:05:46.009Z,994.11
2017-02-23T00:06:46.027Z,994.04
2017-02-23T00:07:46.046Z,994.02
2017-02-23T00:08:46.064Z,994.13
2017-02-23T00:09:46.080Z,994
2017-02-23T00:10:46.099Z,993.97
2017-02-23T00:11:46.118Z,994
2017-02-23T00:12:46.134Z,994.09
2017-02-23T00:14:46.171Z,994.06
2017-02-23T00:15:46.189Z,994.09
2017-02-23T00:16:46.207Z,994.15
2017-02-23T00:17:46.225Z,994.1
2017-02-23T00:18:46.244Z,994.07
2017-02-23T00:19:46.261Z,994.09
2017-02-23T00:20:46.279Z,994.03
2017-02-23T00:21:46.297Z,994.09
2017-02-23T00:22:46.316Z,994.13
2017-02-23T00:23:46.332Z,994.09
2017-02-23T00:24:46.350Z,994.07
2017-02-23T00:25:46.369Z,994.09
2017-02-23T00:26:46.387Z,994.11
2017-02-23T00:27:46.404Z,994.08
2017-02-23T00:28:46.423Z,993.98
2017-02-23T00:30:46.458Z,994.08
2017-02-23T00:31:46.475Z,994.09
2017-02-23T00:32:46.494Z,994.14
2017-02-23T00:33:46.512Z,994.17
2017-02-23T00:34:46.529Z,994.09
2017-02-23T00:35:46.547Z,994.13
2017-02-23T00:36:46.567Z,994.14
2017-02-23T00:37:46.584Z,994.17
2017-02-23T00:38:46.601Z,994.15
2017-02-23T00:39:46.620Z,994.18
2017-02-23T00:40:46.639Z,994.16
2017-02-23T00:41:46.657Z,994.16
2017-02-23T00:42:46.673Z,994.2
2017-02-23T00:43:46.692Z,994.26
2017-02-23T00:44:46.709Z,994.17
2017-02-23T00:46:46.746Z,994.12
2017-02-23T00:47:46.764Z,994.15
2017-02-23T00:48:46.782Z,994.08
2017-02-23T00:49:46.799Z,994.09
2017-02-23T00:50:46.818Z,994.11
2017-02-23T00:51:46.836Z,994.07
2017-02-23T00:52:46.854Z,994.1
2017-02-23T00:53:46.872Z,994.08
2017-02-23T00:54:46.890Z,994.05
2017-02-23T00:55:46.908Z,994.06
2017-02-23T00:56:46.926Z,994.09
2017-02-23T00:57:46.943Z,994.08
2017-02-23T00:58:46.962Z,994.06
2017-02-23T00:59:46.980Z,994.02
2017-02-23T01:00:46.998Z,994.07
2017-02-23T01:02:47.034Z,994.03
2017-02-23T01:03:47.052Z,994.06
2017-02-23T01:04:47.069Z,994.16
2017-02-23T01:05:47.088Z,994.13
2017-02-23T01:06:47.106Z,994.03
2017-02-23T01:07:47.124Z,994.04
2017-02-23T01:08:47.142Z,993.93
2017-02-23T01:09:47.159Z,993.96
2017-02-23T01:10:47.178Z,993.91
2017-02-23T01:11:47.195Z,993.97
2017-02-23T01:12:47.213Z,994.02
2017-02-23T01:13:47.232Z,993.98
2017-02-23T01:14:47.250Z,993.94
2017-02-23T01:15:47.268Z,993.91
2017-02-23T01:17:47.305Z,994.01
2017-02-23T01:18:47.322Z,993.92
2017-02-23T01:19:47.340Z,993.93
2017-02-23T01:20:47.358Z,994.03
2017-02-23T01:21:47.377Z,993.96
2017-02-23T01:22:47.395Z,993.94
2017-02-23T01:23:47.412Z,994.01
2017-02-23T01:24:47.430Z,994.01
2017-02-23T01:25:47.447Z,994.01
2017-02-23T01:26:47.466Z,993.96
2017-02-23T01:27:47.484Z,993.89
2017-02-23T01:28:47.502Z,993.95
2017-02-23T01:29:47.520Z,993.97
2017-02-23T01:30:47.537Z,993.87
2017-02-23T01:31:47.556Z,993.95
2017-02-23T01:32:47.574Z,993.96
2017-02-23T01:33:47.591Z,993.89
2017-02-23T01:34:47.610Z,993.86
2017-02-23T01:35:47.627Z,993.95
2017-02-23T01:36:47.645Z,993.93
2017-02-23T01:37:47.663Z,993.95
2017-02-23T01:38:47.682Z,993.96
2017-02-23T01:39:47.699Z,993.93
2017-02-23T01:40:47.716Z,994.01
2017-02-23T01:41:47.735Z,994.03
2017-02-23T01:42:47.753Z,993.95
2017-02-23T01:43:47.771Z,993.87
2017-02-23T01:44:47.789Z,994.01
2017-02-23T01:45:47.807Z,994.01
2017-02-23T01:46:47.825Z,993.96
2017-02-23T01:47:47.842Z,993.87
2017-02-23T01:49:47.878Z,993.94
2017-02-23T01:50:47.896Z,993.85
2017-02-23T01:51:47.914Z,993.96
2017-02-23T01:52:47.932Z,993.94
2017-02-23T01:53:47.950Z,993.88
2017-02-23T01:54:47.968Z,993.91
2017-02-23T01:55:47.986Z,994.01
2017-02-23T01:56:48.004Z,993.88
2017-02-23T01:57:48.022Z,993.87
2017-02-23T01:58:48.039Z,993.9
2017-02-23T01:59:48.057Z,993.85
2017-02-23T02:00:48.075Z,993.83
2017-02-23T02:01:48.094Z,993.89
2017-02-23T02:02:48.111Z,993.89
2017-02-23T02:03:48.129Z,993.89
2017-02-23T02:05:48.165Z,993.82
2017-02-23T02:06:48.183Z,993.85
2017-02-23T02:07:48.201Z,993.83
2017-02-23T02:08:48.218Z,993.82
2017-02-23T02:09:48.236Z,993.77
2017-02-23T02:10:48.254Z,993.81
2017-02-23T02:11:48.272Z,993.76
2017-02-23T02:12:48.290Z,993.73
2017-02-23T02:13:48.308Z,993.75
2017-02-23T02:14:48.325Z,993.77
2017-02-23T02:15:48.344Z,993.76
2017-02-23T02:16:48.362Z,993.69
2017-02-23T02:17:48.379Z,993.68
2017-02-23T02:18:48.397Z,993.69
2017-02-23T02:19:48.415Z,993.72
2017-02-23T02:21:48.451Z,993.72
2017-02-23T02:22:48.469Z,993.7
2017-02-23T02:23:48.487Z,993.71
2017-02-23T02:24:48.505Z,993.65
2017-02-23T02:25:48.523Z,993.73
2017-02-23T02:26:48.541Z,993.77
2017-02-23T02:27:48.560Z,993.74
2017-02-23T02:28:48.576Z,993.73
2017-02-23T02:29:48.594Z,993.7
2017-02-23T02:30:48.613Z,993.62
2017-02-23T02:31:48.631Z,993.6
2017-02-23T02:32:48.648Z,993.71
2017-02-23T02:33:48.667Z,993.76
2017-02-23T02:34:48.684Z,993.73
2017-02-23T02:35:48.702Z,993.69
2017-02-23T02:37:48.739Z,993.79
2017-02-23T02:38:48.757Z,993.81
2017-02-23T02:39:48.774Z,993.73
2017-02-23T02:40:48.792Z,993.72
2017-02-23T02:41:48.811Z,993.71
2017-02-23T02:42:48.828Z,993.84
2017-02-23T02:43:48.848Z,993.72
2017-02-23T02:44:48.864Z,993.82
2017-02-23T02:45:48.883Z,993.79
2017-02-23T02:46:48.900Z,993.85
2017-02-23T02:47:48.919Z,993.8
2017-02-23T02:48:48.937Z,993.8
2017-02-23T02:49:48.956Z,993.77
2017-02-23T02:50:48.975Z,993.83
2017-02-23T02:52:49.010Z,993.77
2017-02-23T02:53:49.028Z,993.8
2017-02-23T02:54:49.047Z,993.77
2017-02-23T02:55:49.065Z,993.78
2017-02-23T02:56:49.083Z,993.79
2017-02-23T02:57:49.100Z,993.69
2017-02-23T02:58:49.119Z,993.76
2017-02-23T02:59:49.137Z,993.78
2017-02-23T03:00:49.155Z,993.77
2017-02-23T03:01:49.173Z,993.74
2017-02-23T03:02:49.191Z,993.76
2017-02-23T03:03:49.210Z,993.73
2017-02-23T03:04:49.227Z,993.84
2017-02-23T03:05:49.245Z,993.77
2017-02-23T03:06:49.264Z,993.77
2017-02-23T03:07:49.282Z,993.76
2017-02-23T03:08:49.300Z,993.77
2017-02-23T03:09:49.318Z,993.76
2017-02-23T03:10:49.336Z,993.8
2017-02-23T03:11:49.354Z,993.8
2017-02-23T03:12:49.372Z,993.86
2017-02-23T03:13:49.391Z,993.83
2017-02-23T03:14:49.409Z,993.89
2017-02-23T03:15:49.427Z,993.79
2017-02-23T03:16:49.445Z,993.85
2017-02-23T03:17:49.464Z,993.86
2017-02-23T03:18:49.482Z,993.92
2017-02-23T03:19:49.499Z,993.85
2017-02-23T03:20:49.518Z,993.81
2017-02-23T03:21:49.536Z,993.82
2017-02-23T03:22:49.554Z,993.85
2017-02-23T03:24:49.591Z,993.88
2017-02-23T03:25:49.609Z,993.79
2017-02-23T03:26:49.626Z,993.87
2017-02-23T03:27:49.645Z,993.92
2017-02-23T03:28:49.664Z,993.89
2017-02-23T03:29:49.682Z,993.84
2017-02-23T03:30:49.699Z,993.89
2017-02-23T03:31:49.717Z,993.86
2017-02-23T03:32:49.736Z,993.9
2017-02-23T03:33:49.753Z,993.9
2017-02-23T03:34:49.772Z,993.85
2017-02-23T03:35:49.790Z,993.92
2017-02-23T03:36:49.809Z,993.9
2017-02-23T03:37:49.826Z,993.9
2017-02-23T03:38:49.845Z,993.91
2017-02-23T03:40:49.882Z,993.97
2017-02-23T03:41:49.900Z,993.97
2017-02-23T03:42:49.918Z,993.98
2017-02-23T03:43:49.937Z,993.97
2017-02-23T03:44:49.954Z,994
2017-02-23T03:45:49.973Z,994
2017-02-23T03:46:49.991Z,994.05
2017-02-23T03:47:50.010Z,994.01
2017-02-23T03:48:50.027Z,994
2017-02-23T03:49:50.046Z,994.07
2017-02-23T03:50:50.065Z,994
2017-02-23T03:51:50.083Z,994
2017-02-23T03:52:50.100Z,994.06
2017-02-23T03:53:50.118Z,994.01
2017-02-23T03:54:50.140Z,994.05
2017-02-23T03:56:50.173Z,993.97
2017-02-23T03:57:50.194Z,993.96
2017-02-23T03:58:50.211Z,993.99
2017-02-23T03:59:50.228Z,994.01
2017-02-23T04:00:50.247Z,993.95
2017-02-23T04:01:50.267Z,993.95
2017-02-23T04:02:50.284Z,993.95
2017-02-23T04:03:50.302Z,994
2017-02-23T04:04:50.322Z,993.98
2017-02-23T04:05:50.340Z,993.91
2017-02-23T04:06:50.358Z,993.97
2017-02-23T04:07:50.376Z,993.91
2017-02-23T04:08:50.394Z,993.88
2017-02-23T04:09:50.413Z,993.88
2017-02-23T04:10:50.431Z,993.94
2017-02-23T04:12:50.468Z,993.92
2017-02-23T04:13:50.488Z,993.91
2017-02-23T04:14:50.505Z,993.97
2017-02-23T04:15:50.524Z,993.94
2017-02-23T04:16:50.542Z,993.96
2017-02-23T04:17:50.560Z,994.02
2017-02-23T04:18:50.579Z,993.97
2017-02-23T04:19:50.597Z,994.06
2017-02-23T04:20:50.616Z,994.02
2017-02-23T04:21:50.633Z,993.99
2017-02-23T04:22:50.652Z,994.07
2017-02-23T04:23:50.671Z,994.07
2017-02-23T04:24:50.689Z,994.14
2017-02-23T04:25:50.708Z,994.06
2017-02-23T04:27:50.745Z,994.04
2017-02-23T04:28:50.763Z,994.1
2017-02-23T04:29:50.782Z,994.02
2017-02-23T04:30:50.800Z,994.11
2017-02-23T04:31:50.819Z,994.06
2017-02-23T04:32:50.836Z,994.1
2017-02-23T04:33:50.855Z,994.06
2017-02-23T04:34:50.874Z,994.08
2017-02-23T04:35:50.891Z,994.07
2017-02-23T04:36:50.910Z,994.09
2017-02-23T04:37:50.928Z,994.08
2017-02-23T04:38:50.947Z,994.12
2017-02-23T04:39:50.965Z,994.09
2017-02-23T04:40:50.984Z,994.05
2017-02-23T04:41:51.002Z,994.12
2017-02-23T04:42:51.021Z,994.07
2017-02-23T04:43:51.039Z,994.1
2017-02-23T04:44:51.057Z,994.15
2017-02-23T04:45:51.076Z,994.2
2017-02-23T04:46:51.093Z,994.13
2017-02-23T04:47:51.112Z,994.16
2017-02-23T04:48:51.132Z,994.14
2017-02-23T04:49:51.149Z,994.1
2017-02-23T04:50:51.167Z,994.13
2017-02-23T04:51:51.185Z,994.13
2017-02-23T04:52:51.205Z,994.13
2017-02-23T04:53:51.223Z,994.13
2017-02-23T04:54:51.241Z,994.26
2017-02-23T04:55:51.260Z,994.12
2017-02-23T04:56:51.278Z,994.15
2017-02-23T04:57:51.321Z,994.14
2017-02-23T04:59:51.333Z,994.13
2017-02-23T05:00:51.352Z,994.15
2017-02-23T05:01:51.369Z,994.27
2017-02-23T05:02:51.390Z,994.14
2017-02-23T05:03:51.407Z,994.16
2017-02-23T05:04:51.426Z,994.09
2017-02-23T05:05:51.443Z,994.15
2017-02-23T05:06:51.462Z,994.14
2017-02-23T05:07:51.480Z,994.19
2017-02-23T05:08:51.498Z,994.15
2017-02-23T05:09:51.517Z,994.22
2017-02-23T05:10:51.535Z,994.21
2017-02-23T05:11:51.557Z,994.15
2017-02-23T05:12:51.572Z,994.24
2017-02-23T05:13:51.591Z,994.17
2017-02-23T05:15:51.628Z,994.24
2017-02-23T05:16:51.645Z,994.22
2017-02-23T05:17:51.664Z,994.23
2017-02-23T05:18:51.683Z,994.26
2017-02-23T05:19:51.703Z,994.24
2017-02-23T05:20:51.719Z,994.19
2017-02-23T05:21:51.738Z,994.16
2017-02-23T05:22:51.757Z,994.24
2017-02-23T05:23:51.774Z,994.17
2017-02-23T05:24:51.793Z,994.21
2017-02-23T05:25:51.812Z,994.21
2017-02-23T05:26:51.830Z,994.21
2017-02-23T05:27:51.847Z,994.23
2017-02-23T05:28:51.867Z,994.17
2017-02-23T05:29:51.885Z,994.14
2017-02-23T05:31:51.922Z,994.26
2017-02-23T05:32:51.941Z,994.22
2017-02-23T05:33:51.959Z,994.25
2017-02-23T05:34:51.977Z,994.13
2017-02-23T05:35:51.996Z,994.23
2017-02-23T05:36:52.014Z,994.24
2017-02-23T05:37:52.033Z,994.19
2017-02-23T05:38:52.251Z,994.32
2017-02-23T05:39:52.069Z,994.22
2017-02-23T05:40:52.087Z,994.23
2017-02-23T05:41:52.105Z,994.26
2017-02-23T05:42:52.125Z,994.23
2017-02-23T05:43:52.142Z,994.28
2017-02-23T05:44:52.162Z,994.22
2017-02-23T05:45:52.179Z,994.23
2017-02-23T05:47:52.216Z,994.2
2017-02-23T05:48:52.235Z,994.16
2017-02-23T05:49:52.253Z,994.19
2017-02-23T05:50:52.271Z,994.24
2017-02-23T05:51:52.290Z,994.2
2017-02-23T05:52:52.308Z,994.21
2017-02-23T05:53:52.327Z,994.21
2017-02-23T05:54:52.345Z,994.23
2017-02-23T05:55:52.363Z,994.3
2017-02-23T05:56:52.382Z,994.23
2017-02-23T05:57:52.400Z,994.27
2017-02-23T05:58:52.417Z,994.25
2017-02-23T05:59:52.436Z,994.23
2017-02-23T06:00:52.456Z,994.23
2017-02-23T06:02:52.493Z,994.34
2017-02-23T06:03:52.511Z,994.3
2017-02-23T06:04:52.529Z,994.33
2017-02-23T06:05:52.549Z,994.32
2017-02-23T06:06:52.567Z,994.27
2017-02-23T06:07:52.584Z,994.36
2017-02-23T06:08:52.603Z,994.34
2017-02-23T06:09:52.622Z,994.35
2017-02-23T06:10:52.639Z,994.39
2017-02-23T06:11:52.658Z,994.35
2017-02-23T06:12:52.676Z,994.34
2017-02-23T06:13:52.695Z,994.3
2017-02-23T06:14:52.713Z,994.38
2017-02-23T06:15:52.731Z,994.37
2017-02-23T06:16:52.750Z,994.42
2017-02-23T06:17:52.768Z,994.38
2017-02-23T06:18:52.786Z,994.37
2017-02-23T06:19:52.806Z,994.41
2017-02-23T06:20:52.823Z,994.48
2017-02-23T06:21:52.841Z,994.43
2017-02-23T06:22:52.859Z,994.43
2017-02-23T06:23:52.878Z,994.45
2017-02-23T06:24:52.897Z,994.49
2017-02-23T06:25:52.916Z,994.5
2017-02-23T06:26:52.935Z,994.52
2017-02-23T06:27:52.951Z,994.57
2017-02-23T06:28:52.971Z,994.57
2017-02-23T06:29:52.988Z,994.56
2017-02-23T06:30:53.007Z,994.56
2017-02-23T06:31:53.026Z,994.59
2017-02-23T06:32:53.043Z,994.58
2017-02-23T06:34:53.080Z,994.61
2017-02-23T06:35:53.099Z,994.6
2017-02-23T06:36:53.117Z,994.64
2017-02-23T06:37:53.136Z,994.64
2017-02-23T06:38:53.154Z,994.68
2017-02-23T06:39:53.174Z,994.64
2017-02-23T06:40:53.191Z,994.63
2017-02-23T06:41:53.210Z,994.64
2017-02-23T06:42:53.229Z,994.67
2017-02-23T06:43:53.247Z,994.76
2017-02-23T06:44:53.267Z,994.72
2017-02-23T06:45:53.289Z,994.73
2017-02-23T06:46:53.305Z,994.66
2017-02-23T06:47:53.323Z,994.74
2017-02-23T06:48:53.342Z,994.66
2017-02-23T06:50:53.385Z,994.66
2017-02-23T06:51:53.401Z,994.7
2017-02-23T06:52:53.422Z,994.71
2017-02-23T06:53:53.441Z,994.71
2017-02-23T06:54:53.459Z,994.66
2017-02-23T06:55:53.478Z,994.75
2017-02-23T06:56:53.498Z,994.72
2017-02-23T06:57:53.518Z,994.76
2017-02-23T06:58:53.536Z,994.75
2017-02-23T06:59:53.556Z,994.73
2017-02-23T07:00:53.576Z,994.74
2017-02-23T07:01:53.595Z,994.73
2017-02-23T07:02:53.614Z,994.72
2017-02-23T07:03:53.634Z,994.72
2017-02-23T07:04:53.653Z,994.78
2017-02-23T07:06:53.691Z,994.81
2017-02-23T07:07:53.711Z,994.75
2017-02-23T07:08:53.731Z,994.74
2017-02-23T07:09:53.749Z,994.75
2017-02-23T07:10:53.768Z,994.76
2017-02-23T07:11:54.189Z,994.75
2017-02-23T07:12:53.807Z,994.73
2017-02-23T07:13:53.827Z,994.76
2017-02-23T07:14:53.845Z,994.8
2017-02-23T07:15:53.865Z,994.71
2017-02-23T07:16:53.883Z,994.78
2017-02-23T07:17:53.903Z,994.76
2017-02-23T07:18:53.922Z,994.81
2017-02-23T07:19:53.941Z,994.82
2017-02-23T07:20:53.960Z,994.75
2017-02-23T07:22:53.999Z,994.77
2017-02-23T07:23:54.018Z,994.77
2017-02-23T07:24:54.037Z,994.76
2017-02-23T07:25:54.057Z,994.74
2017-02-23T07:26:54.076Z,994.75
2017-02-23T07:27:54.095Z,994.74
2017-02-23T07:28:54.114Z,994.71
2017-02-23T07:29:54.134Z,994.72
2017-02-23T07:30:54.153Z,994.73
2017-02-23T07:31:54.172Z,994.7
2017-02-23T07:32:54.191Z,994.66
2017-02-23T07:33:54.211Z,994.56
2017-02-23T07:34:54.230Z,994.64
2017-02-23T07:35:54.250Z,994.65
2017-02-23T07:37:54.290Z,994.61
2017-02-23T07:38:54.311Z,994.6
2017-02-23T07:39:54.328Z,994.6
2017-02-23T07:40:54.347Z,994.59
2017-02-23T07:41:54.367Z,994.54
2017-02-23T07:42:54.385Z,994.49
2017-02-23T07:43:54.406Z,994.53
2017-02-23T07:44:54.426Z,994.56
2017-02-23T07:45:54.444Z,994.6
2017-02-23T07:46:54.464Z,994.61
2017-02-23T07:47:54.484Z,994.57
2017-02-23T07:48:54.504Z,994.57
2017-02-23T07:49:54.523Z,994.59
2017-02-23T07:50:54.542Z,994.63
2017-02-23T07:51:54.562Z,994.57
2017-02-23T07:52:54.582Z,994.59
2017-02-23T07:53:54.601Z,994.61
2017-02-23T07:54:54.621Z,994.65
2017-02-23T07:55:54.641Z,994.62
2017-02-23T07:56:54.660Z,994.65
2017-02-23T07:57:54.681Z,994.67
2017-02-23T07:58:54.700Z,994.64
2017-02-23T07:59:54.721Z,994.67
2017-02-23T08:00:54.739Z,994.66
2017-02-23T08:01:54.759Z,994.71
2017-02-23T08:02:54.780Z,994.74
2017-02-23T08:03:54.800Z,994.71
2017-02-23T08:04:54.820Z,994.71
2017-02-23T08:05:54.838Z,994.72
2017-02-23T08:06:54.858Z,994.68
2017-02-23T08:07:54.876Z,994.68
2017-02-23T08:09:54.917Z,994.67
2017-02-23T08:10:54.937Z,994.63
2017-02-23T08:11:54.957Z,994.64
2017-02-23T08:12:54.976Z,994.62
2017-02-23T08:13:54.996Z,994.61
2017-02-23T08:14:55.018Z,994.6
2017-02-23T08:15:55.036Z,994.58
2017-02-23T08:16:55.057Z,994.57
2017-02-23T08:17:55.077Z,994.59
2017-02-23T08:18:55.096Z,994.63
2017-02-23T08:19:55.116Z,994.56
2017-02-23T08:20:55.137Z,994.61
2017-02-23T08:21:55.157Z,994.62
2017-02-23T08:22:55.176Z,994.59
2017-02-23T08:23:55.199Z,994.58
2017-02-23T08:25:55.238Z,994.62
2017-02-23T08:26:55.258Z,994.59
2017-02-23T08:27:55.278Z,994.5
2017-02-23T08:28:55.300Z,994.53
2017-02-23T08:29:55.319Z,994.52
2017-02-23T08:30:55.339Z,994.46
2017-02-23T08:31:55.360Z,994.47
2017-02-23T08:32:55.379Z,994.43
2017-02-23T08:33:55.400Z,994.37
2017-02-23T08:34:55.421Z,994.4
2017-02-23T08:35:55.443Z,994.34
2017-02-23T08:36:55.462Z,994.36
2017-02-23T08:37:55.482Z,994.31
2017-02-23T08:38:55.503Z,994.37
2017-02-23T08:39:55.524Z,994.34
2017-02-23T08:41:55.563Z,994.36
2017-02-23T08:42:55.585Z,994.32
2017-02-23T08:43:55.606Z,994.34
2017-02-23T08:44:55.626Z,994.33
2017-02-23T08:45:55.646Z,994.34
2017-02-23T08:46:55.667Z,994.32
2017-02-23T08:47:55.688Z,994.3
2017-02-23T08:48:55.707Z,994.28
2017-02-23T08:49:55.728Z,994.3
2017-02-23T08:50:55.748Z,994.27
2017-02-23T08:51:55.769Z,994.28
2017-02-23T08:52:55.789Z,994.29
2017-02-23T08:53:55.810Z,994.27
2017-02-23T08:54:55.831Z,994.26
2017-02-23T08:55:55.851Z,994.27
2017-02-23T08:57:55.892Z,994.22
2017-02-23T08:58:55.913Z,994.24
2017-02-23T08:59:55.932Z,994.24
2017-02-23T09:00:55.954Z,994.24
2017-02-23T09:01:55.974Z,994.23
2017-02-23T09:02:55.994Z,994.22
2017-02-23T09:03:56.016Z,994.25
2017-02-23T09:04:56.035Z,994.24
2017-02-23T09:05:56.056Z,994.17
2017-02-23T09:06:56.077Z,994.2
2017-02-23T09:07:56.096Z,994.19
2017-02-23T09:08:56.120Z,994.22
2017-02-23T09:09:56.140Z,994.19
2017-02-23T09:10:56.158Z,994.22
2017-02-23T09:12:56.200Z,994.19
2017-02-23T09:13:56.219Z,994.16
2017-02-23T09:14:56.240Z,994.14
2017-02-23T09:15:56.260Z,994.16
2017-02-23T09:16:56.281Z,994.17
2017-02-23T09:17:56.300Z,994.13
2017-02-23T09:18:56.320Z,994.1
2017-02-23T09:19:56.341Z,994.09
2017-02-23T09:20:56.361Z,994.11
2017-02-23T09:21:56.381Z,994.09
2017-02-23T09:22:56.402Z,994.19
2017-02-23T09:23:56.422Z,994.13
2017-02-23T09:24:56.441Z,994.13
2017-02-23T09:25:56.464Z,994.1
2017-02-23T09:26:56.482Z,994.1
2017-02-23T09:27:56.503Z,994.06
2017-02-23T09:28:56.522Z,994.07
2017-02-23T09:29:56.543Z,994.06
2017-02-23T09:30:56.563Z,994.1
2017-02-23T09:31:56.582Z,994.08
2017-02-23T09:32:56.602Z,994.02
2017-02-23T09:33:56.623Z,994.01
2017-02-23T09:34:56.643Z,994.04
2017-02-23T09:35:56.662Z,994.03
2017-02-23T09:36:56.682Z,994.01
2017-02-23T09:37:56.704Z,993.98
2017-02-23T09:38:56.723Z,994.06
2017-02-23T09:39:56.742Z,993.98
2017-02-23T09:40:56.762Z,994.01
2017-02-23T09:41:56.782Z,993.97
2017-02-23T09:42:56.802Z,993.97
2017-02-23T09:44:56.843Z,993.9
2017-02-23T09:45:56.862Z,993.92
2017-02-23T09:46:56.881Z,993.92
2017-02-23T09:47:56.901Z,993.92
2017-02-23T09:48:56.921Z,993.9
2017-02-23T09:49:56.942Z,993.9
2017-02-23T09:50:56.961Z,993.87
2017-02-23T09:51:56.981Z,993.83
2017-02-23T09:52:57.001Z,993.84
2017-02-23T09:53:57.220Z,993.84
2017-02-23T09:54:57.040Z,993.82
2017-02-23T09:55:57.060Z,993.83
2017-02-23T09:56:57.080Z,993.84
2017-02-23T09:57:57.099Z,993.84
2017-02-23T09:58:57.119Z,993.84
2017-02-23T10:00:57.159Z,993.85
2017-02-23T10:01:57.178Z,993.82
2017-02-23T10:02:57.199Z,993.84
2017-02-23T10:03:57.218Z,993.83
2017-02-23T10:04:57.240Z,993.82
2017-02-23T10:05:57.258Z,993.8
2017-02-23T10:06:57.278Z,993.82
2017-02-23T10:07:57.297Z,993.81
2017-02-23T10:08:57.318Z,993.85
2017-02-23T10:09:57.336Z,993.85
2017-02-23T10:10:57.357Z,993.84
2017-02-23T10:11:57.376Z,993.86
2017-02-23T10:12:57.396Z,993.83
2017-02-23T10:13:57.416Z,993.77
2017-02-23T10:14:57.436Z,993.77
2017-02-23T10:16:57.475Z,993.74
2017-02-23T10:17:57.496Z,993.72
2017-02-23T10:18:57.515Z,993.67
2017-02-23T10:19:57.534Z,993.64
2017-02-23T10:20:57.554Z,993.63
2017-02-23T10:21:57.574Z,993.59
2017-02-23T10:22:57.594Z,993.6
2017-02-23T10:23:57.614Z,993.54
2017-02-23T10:24:57.634Z,993.57
2017-02-23T10:25:57.653Z,993.52
2017-02-23T10:26:57.672Z,993.5
2017-02-23T10:27:57.693Z,993.5
2017-02-23T10:28:57.713Z,993.5
2017-02-23T10:29:57.733Z,993.49
2017-02-23T10:30:57.752Z,993.47
2017-02-23T10:32:57.793Z,993.43
2017-02-23T10:33:57.812Z,993.4
2017-02-23T10:34:57.831Z,993.46
2017-02-23T10:35:57.852Z,993.43
2017-02-23T10:36:57.872Z,993.34
2017-02-23T10:37:57.890Z,993.32
2017-02-23T10:38:57.911Z,993.29
2017-02-23T10:39:57.933Z,993.27
2017-02-23T10:40:57.951Z,993.28
2017-02-23T10:41:57.970Z,993.2
2017-02-23T10:42:57.991Z,993.18
2017-02-23T10:43:58.010Z,993.23
2017-02-23T10:44:58.031Z,993.23
2017-02-23T10:45:58.053Z,993.22
2017-02-23T10:47:58.091Z,993.18
2017-02-23T10:48:58.110Z,993.13
2017-02-23T10:49:58.131Z,993.07
2017-02-23T10:50:58.151Z,993.04
2017-02-23T10:51:58.172Z,993.03
2017-02-23T10:52:58.190Z,993
2017-02-23T10:53:58.211Z,992.96
2017-02-23T10:54:58.230Z,992.91
2017-02-23T10:55:58.250Z,992.93
2017-02-23T10:56:58.269Z,992.9
2017-02-23T10:57:58.291Z,992.85
2017-02-23T10:58:58.311Z,992.89
2017-02-23T10:59:58.332Z,992.82
2017-02-23T11:00:58.350Z,992.8
2017-02-23T11:01:58.371Z,992.75
2017-02-23T11:02:58.392Z,992.69
2017-02-23T11:03:58.410Z,992.69
2017-02-23T11:04:58.431Z,992.6
2017-02-23T11:05:58.451Z,992.57
2017-02-23T11:06:58.471Z,992.57
2017-02-23T11:07:58.491Z,992.53
2017-02-23T11:08:58.512Z,992.51
2017-02-23T11:09:58.532Z,992.48
2017-02-23T11:10:58.552Z,992.48
2017-02-23T11:11:58.573Z,992.46
2017-02-23T11:12:58.621Z,992.44
2017-02-23T11:13:58.614Z,992.43
2017-02-23T11:14:58.634Z,992.49
2017-02-23T11:15:58.654Z,992.37
2017-02-23T11:16:58.675Z,992.35
2017-02-23T11:17:58.697Z,992.51
2017-02-23T11:19:58.736Z,992.27
2017-02-23T11:20:58.757Z,992.34
2017-02-23T11:21:58.776Z,992.31
2017-02-23T11:22:58.797Z,992.23
2017-02-23T11:23:58.818Z,992.23
2017-02-23T11:24:58.839Z,992.25
2017-02-23T11:25:58.859Z,992.19
2017-02-23T11:26:58.879Z,992.15
2017-02-23T11:27:58.900Z,992.16
2017-02-23T11:28:58.919Z,992.11
2017-02-23T11:29:58.939Z,992.1
2017-02-23T11:30:58.960Z,992.05
2017-02-23T11:31:58.985Z,992.05
2017-02-23T11:32:59.001Z,992
2017-02-23T11:33:59.021Z,992.06
2017-02-23T11:35:59.063Z,992.04
2017-02-23T11:36:59.082Z,992
2017-02-23T11:37:59.102Z,991.98
2017-02-23T11:38:59.122Z,991.86
2017-02-23T11:39:59.144Z,991.79
2017-02-23T11:40:59.163Z,991.8
2017-02-23T11:41:59.184Z,991.75
2017-02-23T11:42:59.203Z,991.77
2017-02-23T11:43:59.223Z,991.74
2017-02-23T11:44:59.243Z,991.67
2017-02-23T11:45:59.263Z,991.66
2017-02-23T11:46:59.284Z,991.65
2017-02-23T11:47:59.303Z,991.64
2017-02-23T11:48:59.324Z,991.58
2017-02-23T11:49:59.344Z,991.52
2017-02-23T11:51:59.383Z,991.51
2017-02-23T11:52:59.403Z,991.45
2017-02-23T11:53:59.424Z,991.46
2017-02-23T11:54:59.443Z,991.44
2017-02-23T11:55:59.464Z,991.41
2017-02-23T11:56:59.484Z,991.36
2017-02-23T11:57:59.504Z,991.35
2017-02-23T11:58:59.523Z,991.32
2017-02-23T11:59:59.543Z,991.32
2017-02-23T12:00:59.564Z,991.25
2017-02-23T12:01:59.582Z,991.23
2017-02-23T12:02:59.603Z,991.17
2017-02-23T12:03:59.623Z,991.14
2017-02-23T12:04:59.643Z,991.1
2017-02-23T12:05:59.662Z,991.06
2017-02-23T12:07:59.702Z,991.05
2017-02-23T12:08:59.722Z,990.97
2017-02-23T12:09:59.741Z,990.9
2017-02-23T12:10:59.761Z,990.89
2017-02-23T12:11:59.781Z,990.86
2017-02-23T12:12:59.800Z,990.85
2017-02-23T12:13:59.821Z,990.86
2017-02-23T12:14:59.841Z,990.81
2017-02-23T12:15:59.860Z,990.77
2017-02-23T12:16:59.879Z,990.7
2017-02-23T12:17:59.899Z,990.69
2017-02-23T12:18:59.919Z,990.62
2017-02-23T12:19:59.939Z,990.58
2017-02-23T12:20:59.963Z,990.6
2017-02-23T12:22:59.998Z,990.5
2017-02-23T12:24:00.017Z,990.43
2017-02-23T12:25:00.037Z,990.42
2017-02-23T12:26:00.056Z,990.37
2017-02-23T12:27:00.076Z,990.39
2017-02-23T12:28:00.094Z,990.38
2017-02-23T12:29:00.116Z,990.36
2017-02-23T12:30:00.134Z,990.4
2017-02-23T12:31:00.153Z,990.47
2017-02-23T12:32:00.172Z,990.32
2017-02-23T12:33:00.192Z,990.32
2017-02-23T12:34:00.211Z,990.19
2017-02-23T12:35:00.231Z,990.05
2017-02-23T12:36:00.250Z,990.06
2017-02-23T12:37:00.270Z,989.92
2017-02-23T12:38:00.289Z,990.04
2017-02-23T12:39:00.308Z,990.17
2017-02-23T12:40:00.327Z,990.13
2017-02-23T12:41:00.348Z,990.08
2017-02-23T12:42:00.365Z,990.04
2017-02-23T12:43:00.385Z,990.05
2017-02-23T12:44:00.405Z,990.02
2017-02-23T12:45:00.424Z,990.05
2017-02-23T12:46:00.443Z,989.97
2017-02-23T12:47:00.462Z,989.97
2017-02-23T12:48:00.482Z,989.93
2017-02-23T12:49:00.501Z,989.86
2017-02-23T12:50:00.520Z,989.87
2017-02-23T12:51:00.539Z,989.86
2017-02-23T12:52:00.560Z,989.79
2017-02-23T12:53:00.578Z,989.81
2017-02-23T12:55:00.617Z,989.76
2017-02-23T12:56:00.636Z,989.76
2017-02-23T12:57:00.656Z,989.73
2017-02-23T12:58:00.675Z,989.72
2017-02-23T12:59:00.694Z,989.66
2017-02-23T13:00:00.719Z,989.7
2017-02-23T13:01:00.732Z,989.67
2017-02-23T13:02:00.754Z,989.59
2017-02-23T13:03:00.772Z,989.54
2017-02-23T13:04:00.790Z,989.49
2017-02-23T13:05:00.810Z,989.5
2017-02-23T13:06:00.829Z,989.45
2017-02-23T13:07:00.848Z,989.45
2017-02-23T13:08:00.892Z,989.41
2017-02-23T13:09:00.888Z,989.35
2017-02-23T13:11:00.928Z,989.23
2017-02-23T13:12:00.945Z,989.2
2017-02-23T13:13:00.964Z,989.17
2017-02-23T13:14:00.984Z,989.13